createdAt,value
2018-05-15T00:00:11.840Z,10.10
2018-05-15T00:02:39.778Z,10.10
2018-05-15T00:05:08.428Z,10.00
2018-05-15T00:07:36.362Z,10.00
2018-05-15T00:10:04.326Z,9.90
2018-05-15T00:12:32.254Z,9.80
2018-05-15T00:15:00.139Z,9.80
2018-05-15T00:17:28.833Z,9.80
2018-05-15T00:19:57.523Z,9.80
2018-05-15T00:22:26.161Z,9.80
2018-05-15T00:24:54.110Z,9.80
2018-05-15T00:27:21.988Z,9.70
2018-05-15T00:29:49.965Z,9.60
2018-05-15T00:32:17.838Z,9.50
2018-05-15T00:34:45.773Z,9.50
2018-05-15T00:37:13.641Z,9.40
2018-05-15T00:39:41.585Z,9.40
2018-05-15T00:42:10.285Z,9.40
2018-05-15T00:44:38.221Z,9.40
2018-05-15T00:47:06.111Z,9.30
2018-05-15T00:49:34.809Z,9.20
2018-05-15T00:52:03.440Z,9.20
2018-05-15T00:54:31.371Z,9.20
2018-05-15T00:56:59.256Z,9.20
2018-05-15T00:59:27.193Z,9.20
2018-05-15T01:01:55.854Z,9.20
2018-05-15T01:04:23.780Z,9.20
2018-05-15T01:06:51.658Z,9.20
2018-05-15T01:09:19.602Z,9.10
2018-05-15T01:11:47.479Z,9.00
2018-05-15T01:14:15.429Z,9.00
2018-05-15T01:16:44.061Z,9.00
2018-05-15T01:19:12.002Z,8.90
2018-05-15T01:21:39.883Z,8.90
2018-05-15T01:24:07.816Z,8.90
2018-05-15T01:26:36.512Z,8.90
2018-05-15T01:29:05.215Z,8.70
2018-05-15T01:31:33.090Z,8.70
2018-05-15T01:34:01.072Z,8.70
2018-05-15T01:36:28.945Z,8.70
2018-05-15T01:38:56.868Z,8.70
2018-05-15T01:41:24.794Z,8.70
2018-05-15T01:43:52.715Z,8.70
2018-05-15T01:46:21.357Z,8.60
2018-05-15T01:48:49.287Z,8.60
2018-05-15T01:51:17.168Z,8.50
2018-05-15T01:53:45.102Z,8.50
2018-05-15T01:56:13.747Z,8.50
2018-05-15T01:58:41.686Z,8.50
2018-05-15T02:01:09.577Z,8.50
2018-05-15T02:03:37.513Z,8.50
2018-05-15T02:06:05.442Z,8.50
2018-05-15T02:08:33.382Z,8.40
2018-05-15T02:11:01.257Z,8.40
2018-05-15T02:13:29.181Z,8.40
2018-05-15T02:15:57.822Z,8.30
2018-05-15T02:18:25.797Z,8.30
2018-05-15T02:20:53.696Z,8.20
2018-05-15T02:23:22.393Z,8.20
2018-05-15T02:25:51.030Z,8.20
2018-05-15T02:28:18.957Z,8.10
2018-05-15T02:30:46.841Z,8.20
2018-05-15T02:33:14.777Z,8.10
2018-05-15T02:35:43.422Z,8.00
2018-05-15T02:38:11.371Z,8.00
2018-05-15T02:40:39.282Z,8.00
2018-05-15T02:43:07.215Z,7.90
2018-05-15T02:45:35.156Z,7.90
2018-05-15T02:48:03.084Z,7.90
2018-05-15T02:50:31.022Z,7.90
2018-05-15T02:52:58.910Z,7.80
2018-05-15T02:55:26.845Z,7.80
2018-05-15T02:57:54.751Z,7.80
2018-05-15T03:00:22.701Z,7.70
2018-05-15T03:02:50.581Z,7.70
2018-05-15T03:05:18.549Z,7.70
2018-05-15T03:07:46.421Z,7.70
2018-05-15T03:10:14.374Z,7.70
2018-05-15T03:12:42.250Z,7.60
2018-05-15T03:15:10.200Z,7.50
2018-05-15T03:17:38.074Z,7.50
2018-05-15T03:20:06.065Z,7.50
2018-05-15T03:22:33.943Z,7.50
2018-05-15T03:25:01.882Z,7.50
2018-05-15T03:27:29.771Z,7.40
2018-05-15T03:29:57.704Z,7.30
2018-05-15T03:32:25.586Z,7.30
2018-05-15T03:34:53.529Z,7.30
2018-05-15T03:37:22.165Z,7.40
2018-05-15T03:39:50.114Z,7.40
2018-05-15T03:42:17.988Z,7.40
2018-05-15T03:44:45.918Z,7.50
2018-05-15T03:47:14.591Z,7.40
2018-05-15T03:49:42.536Z,7.40
2018-05-15T03:52:10.488Z,7.30
2018-05-15T03:54:38.511Z,7.40
2018-05-15T03:57:07.173Z,7.40
2018-05-15T03:59:35.138Z,7.40
2018-05-15T04:02:14.977Z,7.20
2018-05-15T04:04:54.604Z,7.20
2018-05-15T04:07:34.200Z,7.20
2018-05-15T04:10:02.959Z,7.40
2018-05-15T04:12:30.866Z,7.30
2018-05-15T04:14:59.586Z,7.40
2018-05-15T04:17:27.490Z,7.40
2018-05-15T04:19:55.463Z,7.50
2018-05-15T04:22:23.381Z,7.60
2018-05-15T04:24:51.345Z,7.60
2018-05-15T04:27:22.420Z,7.70
2018-05-15T04:29:53.887Z,7.60
2018-05-15T04:32:25.184Z,7.60
2018-05-15T04:34:57.027Z,7.70
2018-05-15T04:37:28.518Z,7.70
2018-05-15T04:39:56.486Z,7.70
2018-05-15T04:42:24.398Z,7.70
2018-05-15T04:44:52.340Z,7.90
2018-05-15T04:47:20.393Z,8.00
2018-05-15T04:49:48.343Z,8.20
2018-05-15T04:52:17.001Z,8.40
2018-05-15T04:54:44.960Z,8.40
2018-05-15T04:57:12.864Z,8.50
2018-05-15T04:59:41.597Z,8.60
2018-05-15T05:02:09.499Z,8.60
2018-05-15T05:04:37.462Z,8.70
2018-05-15T05:07:05.375Z,8.90
2018-05-15T05:09:33.325Z,9.40
2018-05-15T05:12:01.998Z,11.80
2018-05-15T05:14:29.995Z,11.80
2018-05-15T05:16:58.684Z,13.80
2018-05-15T05:19:26.666Z,13.70
2018-05-15T05:21:54.566Z,14.70
2018-05-15T05:24:22.518Z,15.80
2018-05-15T05:26:50.426Z,16.70
2018-05-15T05:29:18.457Z,17.00
2018-05-15T05:31:46.361Z,17.80
2018-05-15T05:34:14.325Z,18.10
2018-05-15T05:36:42.229Z,18.70
2018-05-15T05:39:10.983Z,19.20
2018-05-15T05:41:38.915Z,19.20
2018-05-15T05:44:06.888Z,19.70
2018-05-15T05:46:34.792Z,20.20
2018-05-15T05:49:02.749Z,20.10
2018-05-15T05:51:30.652Z,20.80
2018-05-15T05:53:58.611Z,20.70
2018-05-15T05:56:26.523Z,19.60
2018-05-15T05:58:54.417Z,18.70
2018-05-15T06:01:22.407Z,19.20
2018-05-15T06:03:50.304Z,19.20
2018-05-15T06:06:18.272Z,18.80
2018-05-15T06:08:46.161Z,18.80
2018-05-15T06:11:14.895Z,19.70
2018-05-15T06:13:42.805Z,19.70
2018-05-15T06:16:10.833Z,19.80
2018-05-15T06:18:38.706Z,19.70
2018-05-15T06:21:06.741Z,20.00
2018-05-15T06:23:34.614Z,20.20
2018-05-15T06:26:02.572Z,20.90
2018-05-15T06:28:31.232Z,22.80
2018-05-15T06:30:59.171Z,22.70
2018-05-15T06:33:27.084Z,22.90
2018-05-15T06:35:55.804Z,21.90
2018-05-15T06:38:23.699Z,21.90
2018-05-15T06:40:51.644Z,22.20
2018-05-15T06:43:19.544Z,22.60
2018-05-15T06:45:47.484Z,23.20
2018-05-15T06:48:15.367Z,23.40
2018-05-15T06:50:43.311Z,23.60
2018-05-15T06:53:11.211Z,24.40
2018-05-15T06:55:39.152Z,24.90
2018-05-15T06:58:07.036Z,25.70
2018-05-15T07:00:35.746Z,26.80
2018-05-15T07:03:03.638Z,26.70
2018-05-15T07:05:31.586Z,26.70
2018-05-15T07:07:59.486Z,26.60
2018-05-15T07:10:28.197Z,25.30
2018-05-15T07:12:56.144Z,25.30
2018-05-15T07:15:24.095Z,25.90
2018-05-15T07:17:52.028Z,26.10
2018-05-15T07:20:19.988Z,25.90
2018-05-15T07:22:47.893Z,25.60
2018-05-15T07:25:15.836Z,24.90
2018-05-15T07:27:43.751Z,25.00
2018-05-15T07:30:11.713Z,24.80
2018-05-15T07:32:39.607Z,25.10
2018-05-15T07:35:08.334Z,23.50
2018-05-15T07:37:36.250Z,23.50
2018-05-15T07:40:04.266Z,23.30
2018-05-15T07:42:32.153Z,22.90
2018-05-15T07:45:00.087Z,22.70
2018-05-15T07:47:27.982Z,22.40
2018-05-15T07:49:55.929Z,21.80
2018-05-15T07:52:23.881Z,21.90
2018-05-15T07:54:52.595Z,22.50
2018-05-15T07:57:20.494Z,22.50
2018-05-15T07:59:48.439Z,22.10
2018-05-15T08:02:16.329Z,24.80
2018-05-15T08:04:44.285Z,26.80
2018-05-15T08:07:12.179Z,26.70
2018-05-15T08:09:40.138Z,26.80
2018-05-15T08:12:08.040Z,27.20
2018-05-15T08:14:36.023Z,27.60
2018-05-15T08:17:05.053Z,28.40
2018-05-15T08:19:33.198Z,28.40
2018-05-15T08:22:01.885Z,28.20
2018-05-15T08:24:30.596Z,29.60
2018-05-15T08:26:58.557Z,29.60
2018-05-15T08:29:26.454Z,29.50
2018-05-15T08:31:54.415Z,28.90
2018-05-15T08:34:23.086Z,28.90
2018-05-15T08:36:51.041Z,28.90
2018-05-15T08:39:18.990Z,29.20
2018-05-15T08:41:47.070Z,29.30
2018-05-15T08:44:15.749Z,29.40
2018-05-15T08:46:43.706Z,29.40
2018-05-15T08:49:11.610Z,30.30
2018-05-15T08:51:40.331Z,29.20
2018-05-15T08:54:08.224Z,29.10
2018-05-15T08:56:36.203Z,30.00
2018-05-15T08:59:04.134Z,30.10
2018-05-15T09:01:32.180Z,30.50
2018-05-15T09:04:00.091Z,30.90
2018-05-15T09:06:28.652Z,31.00
2018-05-15T09:08:56.548Z,30.60
2018-05-15T09:11:29.270Z,30.50
2018-05-15T09:13:57.359Z,31.60
2018-05-15T09:16:27.546Z,30.50
2018-05-15T09:18:55.441Z,30.50
2018-05-15T09:21:24.171Z,30.80
2018-05-15T09:23:52.128Z,30.80
2018-05-15T09:26:21.057Z,30.50
2018-05-15T09:28:48.994Z,30.60
2018-05-15T09:31:18.349Z,30.80
2018-05-15T09:33:46.295Z,31.20
2018-05-15T09:36:17.584Z,31.30
2018-05-15T09:38:45.494Z,31.70
2018-05-15T09:41:13.533Z,31.40
2018-05-15T09:43:58.310Z,31.70
2018-05-15T09:46:26.346Z,32.10
2018-05-15T09:48:54.254Z,32.40
2018-05-15T09:51:22.266Z,31.90
2018-05-15T09:53:50.177Z,30.70
2018-05-15T09:56:19.173Z,30.20
2018-05-15T09:58:47.072Z,30.60
2018-05-15T10:01:15.114Z,31.20
2018-05-15T10:03:43.017Z,30.40
2018-05-15T10:06:11.003Z,30.40
2018-05-15T10:08:38.915Z,31.20
2018-05-15T10:11:07.652Z,30.90
2018-05-15T10:13:36.054Z,30.80
2018-05-15T10:16:04.058Z,30.60
2018-05-15T10:18:32.735Z,30.80
2018-05-15T10:21:01.458Z,31.20
2018-05-15T10:23:29.467Z,31.30
2018-05-15T10:25:57.484Z,31.40
2018-05-15T10:28:25.387Z,32.10
2018-05-15T10:30:53.349Z,32.60
2018-05-15T10:33:21.248Z,31.40
2018-05-15T10:35:49.215Z,31.70
2018-05-15T10:38:17.117Z,30.90
2018-05-15T10:40:45.845Z,31.20
2018-05-15T10:43:13.889Z,31.20
2018-05-15T10:45:41.935Z,31.50
2018-05-15T10:48:09.840Z,31.50
2018-05-15T10:50:37.822Z,31.70
2018-05-15T10:53:05.730Z,31.90
2018-05-15T10:55:33.678Z,32.30
2018-05-15T10:58:01.579Z,32.40
2018-05-15T11:00:30.367Z,32.00
2018-05-15T11:02:58.266Z,32.00
2018-05-15T11:05:26.226Z,32.00
2018-05-15T11:07:54.894Z,29.70
2018-05-15T11:10:23.253Z,29.70
2018-05-15T11:12:52.786Z,29.20
2018-05-15T11:15:21.516Z,29.40
2018-05-15T11:17:50.618Z,29.40
2018-05-15T11:20:30.424Z,29.80
2018-05-15T11:23:10.873Z,30.30
2018-05-15T11:25:38.833Z,30.20
2018-05-15T11:28:06.736Z,30.40
2018-05-15T11:30:35.503Z,30.50
2018-05-15T11:33:03.457Z,30.50
2018-05-15T11:35:31.454Z,30.40
2018-05-15T11:38:00.126Z,30.00
2018-05-15T11:40:28.093Z,30.00
2018-05-15T11:42:55.998Z,29.70
2018-05-15T11:45:23.903Z,28.30
2018-05-15T11:47:52.124Z,29.00
2018-05-15T11:50:20.538Z,29.80
2018-05-15T11:52:49.300Z,28.80
2018-05-15T11:55:16.595Z,28.70
2018-05-15T11:57:44.549Z,29.10
2018-05-15T12:00:12.553Z,30.10
2018-05-15T12:02:41.435Z,28.90
2018-05-15T12:05:10.083Z,29.30
2018-05-15T12:07:38.793Z,29.10
2018-05-15T12:10:06.702Z,29.10
2018-05-15T12:12:34.791Z,29.50
2018-05-15T12:15:02.733Z,30.20
2018-05-15T12:17:30.709Z,29.60
2018-05-15T12:19:58.597Z,30.10
2018-05-15T12:22:26.546Z,28.70
2018-05-15T12:24:54.444Z,27.40
2018-05-15T12:27:23.338Z,26.50
2018-05-15T12:29:52.215Z,26.90
2018-05-15T12:32:20.118Z,26.90
2018-05-15T12:34:48.102Z,26.90
2018-05-15T12:37:16.058Z,26.20
2018-05-15T12:39:43.934Z,25.60
2018-05-15T12:42:12.166Z,25.90
2018-05-15T12:44:39.837Z,26.60
2018-05-15T12:47:07.786Z,27.60
2018-05-15T12:49:35.669Z,28.40
2018-05-15T12:52:03.629Z,28.40
2018-05-15T12:54:31.525Z,28.10
2018-05-15T12:57:00.233Z,26.90
2018-05-15T12:59:28.121Z,26.90
2018-05-15T13:01:56.013Z,26.10
2018-05-15T13:04:23.961Z,25.50
2018-05-15T13:06:51.853Z,25.40
2018-05-15T13:09:19.806Z,25.20
2018-05-15T13:11:47.693Z,24.90
2018-05-15T13:14:15.643Z,24.70
2018-05-15T13:16:43.532Z,24.80
2018-05-15T13:19:11.475Z,25.50
2018-05-15T13:21:39.387Z,26.00
2018-05-15T13:24:07.480Z,26.10
2018-05-15T13:26:36.158Z,26.30
2018-05-15T13:29:04.893Z,26.90
2018-05-15T13:31:32.814Z,26.90
2018-05-15T13:34:01.720Z,27.20
2018-05-15T13:36:30.394Z,26.60
2018-05-15T13:38:58.337Z,26.60
2018-05-15T13:41:26.227Z,26.70
2018-05-15T13:43:54.175Z,26.90
2018-05-15T13:46:22.099Z,26.90
2018-05-15T13:48:50.070Z,26.90
2018-05-15T13:51:17.989Z,26.90
2018-05-15T13:53:45.944Z,26.60
2018-05-15T13:56:13.868Z,26.20
2018-05-15T13:58:41.823Z,25.70
2018-05-15T14:01:10.600Z,25.60
2018-05-15T14:03:38.605Z,25.60
2018-05-15T14:06:06.506Z,25.60
2018-05-15T14:08:34.545Z,25.60
2018-05-15T14:11:02.448Z,25.70
2018-05-15T14:13:30.354Z,25.80
2018-05-15T14:15:58.298Z,25.80
2018-05-15T14:18:26.193Z,25.60
2018-05-15T14:20:54.161Z,25.20
2018-05-15T14:23:22.056Z,25.20
2018-05-15T14:25:50.021Z,25.10
2018-05-15T14:28:18.684Z,24.80
2018-05-15T14:30:46.639Z,24.80
2018-05-15T14:33:14.548Z,25.20
2018-05-15T14:35:43.269Z,26.00
2018-05-15T14:38:11.265Z,26.00
2018-05-15T14:40:39.251Z,25.70
2018-05-15T14:43:24.578Z,25.50
2018-05-15T14:45:52.541Z,25.40
2018-05-15T14:48:20.439Z,25.60
2018-05-15T14:54:07.404Z,25.40
2018-05-15T14:56:35.510Z,25.50
2018-05-15T14:59:03.407Z,25.20
2018-05-15T15:01:31.375Z,24.90
2018-05-15T15:03:59.277Z,24.90
2018-05-15T15:06:27.251Z,24.90
2018-05-15T15:08:55.149Z,24.70
2018-05-15T15:11:23.855Z,25.10
2018-05-15T15:13:51.758Z,25.10
2018-05-15T15:16:19.707Z,25.10
2018-05-15T15:18:47.664Z,24.70
2018-05-15T15:21:15.611Z,24.30
2018-05-15T15:23:44.292Z,24.00
2018-05-15T15:26:12.315Z,24.00
2018-05-15T15:28:40.242Z,23.70
2018-05-15T15:31:08.962Z,23.90
2018-05-15T15:33:36.857Z,23.90
2018-05-15T15:36:04.818Z,23.90
2018-05-15T15:38:32.713Z,24.20
2018-05-15T15:41:00.670Z,24.00
2018-05-15T15:43:28.609Z,23.80
2018-05-15T15:45:56.710Z,23.90
2018-05-15T15:48:26.784Z,23.90
2018-05-15T15:50:54.758Z,23.70
2018-05-15T15:53:22.667Z,23.80
2018-05-15T15:55:50.781Z,23.60
2018-05-15T15:58:19.485Z,23.10
2018-05-15T16:00:47.378Z,23.10
2018-05-15T16:03:15.321Z,23.00
2018-05-15T16:05:43.208Z,23.00
2018-05-15T16:08:11.152Z,23.00
2018-05-15T16:10:39.822Z,22.90
2018-05-15T16:13:08.542Z,22.90
2018-05-15T16:15:36.906Z,22.90
2018-05-15T16:18:05.628Z,22.70
2018-05-15T16:20:33.516Z,22.70
2018-05-15T16:23:01.469Z,23.00
2018-05-15T16:25:29.374Z,23.20
2018-05-15T16:27:58.224Z,23.40
2018-05-15T16:30:26.134Z,23.40
2018-05-15T16:32:54.094Z,23.40
2018-05-15T16:35:21.995Z,23.60
2018-05-15T16:37:50.714Z,23.60
2018-05-15T16:40:18.601Z,23.60
2018-05-15T16:42:46.636Z,23.60
2018-05-15T16:45:15.049Z,23.60
2018-05-15T16:47:43.448Z,23.60
2018-05-15T16:50:11.344Z,23.60
2018-05-15T16:52:40.353Z,23.10
2018-05-15T16:55:09.006Z,22.80
2018-05-15T16:57:38.004Z,22.80
2018-05-15T17:00:05.921Z,22.70
2018-05-15T17:02:33.899Z,22.80
2018-05-15T17:05:01.798Z,22.60
2018-05-15T17:07:29.736Z,22.60
2018-05-15T17:09:57.623Z,22.60
2018-05-15T17:12:25.573Z,22.60
2018-05-15T17:14:53.724Z,22.50
2018-05-15T17:17:21.725Z,22.50
2018-05-15T17:19:49.610Z,22.40
2018-05-15T17:22:17.578Z,22.30
2018-05-15T17:24:45.481Z,22.20
2018-05-15T17:27:13.443Z,22.10
2018-05-15T17:29:41.344Z,22.10
2018-05-15T17:32:09.293Z,22.00
2018-05-15T17:34:37.966Z,21.90
2018-05-15T17:37:05.874Z,21.80
2018-05-15T17:39:33.817Z,21.80
2018-05-15T17:42:02.481Z,21.70
2018-05-15T17:44:30.437Z,21.70
2018-05-15T17:46:58.379Z,21.50
2018-05-15T17:49:26.325Z,21.50
2018-05-15T17:51:54.970Z,21.10
2018-05-15T17:54:22.933Z,21.10
2018-05-15T17:56:50.844Z,21.10
2018-05-15T17:59:19.585Z,21.00
2018-05-15T18:01:47.505Z,21.00
2018-05-15T18:04:16.302Z,20.70
2018-05-15T18:09:39.445Z,20.70
2018-05-15T18:12:07.401Z,20.60
2018-05-15T18:14:35.711Z,20.60
2018-05-15T18:17:03.631Z,20.60
2018-05-15T18:19:31.574Z,20.40
2018-05-15T18:21:59.478Z,20.40
2018-05-15T18:24:27.424Z,20.40
2018-05-15T18:26:55.423Z,20.30
2018-05-15T18:29:23.895Z,20.20
2018-05-15T18:31:52.239Z,20.20
2018-05-15T18:34:20.203Z,20.10
2018-05-15T18:36:48.847Z,19.80
2018-05-15T18:39:16.845Z,19.80
2018-05-15T18:41:45.693Z,19.70
2018-05-15T18:44:13.737Z,19.50
2018-05-15T18:46:41.758Z,19.40
2018-05-15T18:49:13.013Z,19.20
2018-05-15T18:51:41.551Z,19.10
2018-05-15T18:54:09.538Z,18.90
2018-05-15T18:56:37.424Z,18.80
2018-05-15T18:59:05.395Z,18.60
2018-05-15T19:01:33.290Z,18.40
2018-05-15T19:04:01.246Z,18.30
2018-05-15T19:06:29.139Z,18.10
2018-05-15T19:08:57.903Z,17.80
2018-05-15T19:11:25.806Z,17.80
2018-05-15T19:13:54.685Z,17.50
2018-05-15T19:16:22.666Z,17.50
2018-05-15T19:18:51.397Z,17.20
2018-05-15T19:21:19.846Z,17.20
2018-05-15T19:23:47.790Z,17.00
2018-05-15T19:26:15.677Z,16.80
2018-05-15T19:28:43.643Z,16.70
2018-05-15T19:31:16.333Z,16.60
2018-05-15T19:33:49.832Z,16.50
2018-05-15T19:36:17.793Z,16.40
2018-05-15T19:38:46.562Z,16.30
2018-05-15T19:41:20.280Z,16.20
2018-05-15T19:43:49.024Z,16.00
2018-05-15T19:46:17.134Z,16.00
2018-05-15T19:48:47.833Z,15.70
2018-05-15T19:51:16.744Z,15.70
2018-05-15T19:53:44.699Z,15.60
2018-05-15T19:56:12.644Z,15.50
2018-05-15T19:58:40.585Z,15.40
2018-05-15T20:01:09.251Z,15.40
2018-05-15T20:03:37.201Z,15.30
2018-05-15T20:06:05.116Z,15.30
2018-05-15T20:08:33.099Z,15.10
2018-05-15T20:11:00.988Z,15.00
2018-05-15T20:13:31.584Z,14.90
2018-05-15T20:15:59.577Z,14.90
2018-05-15T20:18:28.289Z,14.80
2018-05-15T20:20:57.484Z,14.90
2018-05-15T20:23:25.561Z,14.80
2018-05-15T20:25:53.448Z,14.70
2018-05-15T20:28:21.397Z,14.70
2018-05-15T20:30:49.331Z,14.70
2018-05-15T20:33:17.379Z,14.70
2018-05-15T20:35:46.040Z,14.70
2018-05-15T20:38:14.789Z,14.60
2018-05-15T20:40:42.682Z,14.60
2018-05-15T20:43:10.651Z,14.60
2018-05-15T20:45:38.550Z,14.50
2018-05-15T20:48:06.518Z,14.50
2018-05-15T20:50:34.421Z,14.40
2018-05-15T20:53:02.376Z,14.40
2018-05-15T20:55:31.033Z,14.40
2018-05-15T20:57:59.030Z,14.40
2018-05-15T21:00:27.689Z,14.30
2018-05-15T21:02:55.586Z,14.30
2018-05-15T21:05:24.311Z,14.30
2018-05-15T21:07:52.209Z,14.30
2018-05-15T21:10:20.155Z,14.30
2018-05-15T21:12:48.070Z,14.30
2018-05-15T21:15:16.406Z,14.20
2018-05-15T21:17:44.442Z,14.10
2018-05-15T21:20:12.382Z,14.10
2018-05-15T21:22:40.284Z,13.90
2018-05-15T21:25:09.038Z,13.90
2018-05-15T21:27:36.924Z,13.90
2018-05-15T21:30:04.890Z,13.90
2018-05-15T21:32:32.829Z,13.90
2018-05-15T21:35:00.778Z,13.90
2018-05-15T21:37:28.677Z,13.90
2018-05-15T21:39:56.639Z,13.90
2018-05-15T21:42:24.563Z,14.00
2018-05-15T21:44:53.034Z,13.90
2018-05-15T21:47:21.785Z,13.90
2018-05-15T21:49:49.704Z,13.90
2018-05-15T21:52:17.641Z,14.00
2018-05-15T21:54:45.595Z,14.00
2018-05-15T21:57:13.514Z,14.10
2018-05-15T21:59:41.468Z,14.10
2018-05-15T22:02:10.178Z,14.10
2018-05-15T22:04:38.136Z,14.00
2018-05-15T22:07:06.871Z,13.90
2018-05-15T22:09:34.820Z,13.90
2018-05-15T22:12:14.501Z,13.90
2018-05-15T22:14:54.097Z,13.90
2018-05-15T22:17:33.810Z,13.80
2018-05-15T22:20:13.409Z,13.80
2018-05-15T22:22:40.746Z,13.80
2018-05-15T22:25:08.707Z,13.80
2018-05-15T22:27:36.614Z,13.70
2018-05-15T22:30:04.610Z,13.70
2018-05-15T22:32:32.511Z,13.60
2018-05-15T22:35:00.472Z,13.60
2018-05-15T22:37:29.131Z,13.40
2018-05-15T22:39:57.089Z,13.40
2018-05-15T22:42:24.998Z,13.40
2018-05-15T22:44:53.715Z,13.30
2018-05-15T22:47:21.619Z,13.20
2018-05-15T22:49:49.569Z,13.20
2018-05-15T22:52:17.454Z,13.20
2018-05-15T22:54:45.395Z,13.20
2018-05-15T22:57:13.282Z,13.20
2018-05-15T22:59:41.230Z,13.10
2018-05-15T23:02:09.132Z,13.00
2018-05-15T23:04:37.092Z,12.90
2018-05-15T23:07:05.008Z,12.90
2018-05-15T23:09:33.729Z,13.30
2018-05-15T23:12:01.674Z,13.20
2018-05-15T23:14:29.638Z,13.20
2018-05-15T23:16:58.300Z,13.30
2018-05-15T23:19:26.251Z,13.30
2018-05-15T23:21:54.157Z,13.40
2018-05-15T23:24:22.882Z,13.40
2018-05-15T23:26:50.803Z,13.40
2018-05-15T23:29:18.788Z,13.50
2018-05-15T23:31:46.704Z,13.70
2018-05-15T23:34:14.654Z,13.80
2018-05-15T23:36:42.542Z,13.80
2018-05-15T23:39:10.506Z,13.70
2018-05-15T23:41:38.403Z,13.60
2018-05-15T23:44:06.360Z,13.70
2018-05-15T23:46:34.246Z,13.80
2018-05-15T23:49:02.218Z,13.80
2018-05-15T23:51:30.113Z,13.80
2018-05-15T23:53:58.792Z,13.80
2018-05-15T23:56:27.512Z,13.80
2018-05-15T23:58:55.410Z,13.80
